sensor_id;sensor_type;location;lat;lon;timestamp;P1;durP1;ratioP1;P2;durP2;ratioP2
26582;SDS011;14230;45.382;10.998;2023-02-15T00:00:04;94.43;;;47.25;;
26582;SDS011;14230;45.382;10.998;2023-02-15T00:02:32;94.55;;;47.13;;
26582;SDS011;14230;45.382;10.998;2023-02-15T00:05:00;94.03;;;46.50;;
26582;SDS011;14230;45.382;10.998;2023-02-15T00:07:27;93.97;;;46.65;;
26582;SDS011;14230;45.382;10.998;2023-02-15T00:09:55;94.47;;;44.70;;
26582;SDS011;14230;45.382;10.998;2023-02-15T00:12:22;111.82;;;50.25;;
26582;SDS011;14230;45.382;10.998;2023-02-15T00:14:49;104.20;;;52.03;;
26582;SDS011;14230;45.382;10.998;2023-02-15T00:17:17;107.25;;;50.55;;
26582;SDS011;14230;45.382;10.998;2023-02-15T00:19:44;114.88;;;52.83;;
26582;SDS011;14230;45.382;10.998;2023-02-15T00:22:11;106.60;;;52.00;;
26582;SDS011;14230;45.382;10.998;2023-02-15T00:24:39;116.68;;;52.63;;
26582;SDS011;14230;45.382;10.998;2023-02-15T00:27:06;106.15;;;48.28;;
26582;SDS011;14230;45.382;10.998;2023-02-15T00:29:36;114.25;;;54.50;;
26582;SDS011;14230;45.382;10.998;2023-02-15T00:32:03;108.35;;;52.17;;
26582;SDS011;14230;45.382;10.998;2023-02-15T00:34:31;106.60;;;50.03;;
26582;SDS011;14230;45.382;10.998;2023-02-15T00:36:58;110.78;;;53.20;;
26582;SDS011;14230;45.382;10.998;2023-02-15T00:39:26;107.78;;;53.72;;
26582;SDS011;14230;45.382;10.998;2023-02-15T00:41:54;108.90;;;53.58;;
26582;SDS011;14230;45.382;10.998;2023-02-15T00:44:21;109.75;;;53.28;;
26582;SDS011;14230;45.382;10.998;2023-02-15T00:46:48;119.47;;;54.58;;
26582;SDS011;14230;45.382;10.998;2023-02-15T00:49:16;114.05;;;55.50;;
26582;SDS011;14230;45.382;10.998;2023-02-15T00:51:43;120.32;;;55.90;;
26582;SDS011;14230;45.382;10.998;2023-02-15T00:54:11;111.30;;;56.13;;
26582;SDS011;14230;45.382;10.998;2023-02-15T00:56:38;116.43;;;58.95;;
26582;SDS011;14230;45.382;10.998;2023-02-15T00:59:05;146.95;;;67.20;;
26582;SDS011;14230;45.382;10.998;2023-02-15T01:01:34;136.80;;;65.75;;
26582;SDS011;14230;45.382;10.998;2023-02-15T01:04:02;125.18;;;62.70;;
26582;SDS011;14230;45.382;10.998;2023-02-15T01:06:29;127.88;;;64.03;;
26582;SDS011;14230;45.382;10.998;2023-02-15T01:08:57;128.35;;;64.70;;
26582;SDS011;14230;45.382;10.998;2023-02-15T01:11:24;128.13;;;65.57;;
26582;SDS011;14230;45.382;10.998;2023-02-15T01:13:53;133.15;;;62.05;;
26582;SDS011;14230;45.382;10.998;2023-02-15T01:16:22;127.80;;;59.42;;
26582;SDS011;14230;45.382;10.998;2023-02-15T01:18:51;131.80;;;62.88;;
26582;SDS011;14230;45.382;10.998;2023-02-15T01:21:19;133.77;;;62.63;;
26582;SDS011;14230;45.382;10.998;2023-02-15T01:23:48;132.23;;;62.50;;
26582;SDS011;14230;45.382;10.998;2023-02-15T01:26:16;119.68;;;58.83;;
26582;SDS011;14230;45.382;10.998;2023-02-15T01:28:44;129.73;;;63.92;;
26582;SDS011;14230;45.382;10.998;2023-02-15T01:31:13;130.15;;;63.35;;
26582;SDS011;14230;45.382;10.998;2023-02-15T01:33:45;123.65;;;62.25;;
26582;SDS011;14230;45.382;10.998;2023-02-15T01:36:13;137.75;;;66.50;;
26582;SDS011;14230;45.382;10.998;2023-02-15T01:38:41;143.77;;;67.82;;
26582;SDS011;14230;45.382;10.998;2023-02-15T01:41:09;131.70;;;62.90;;
26582;SDS011;14230;45.382;10.998;2023-02-15T01:43:54;124.88;;;60.30;;
26582;SDS011;14230;45.382;10.998;2023-02-15T01:46:35;127.93;;;64.53;;
26582;SDS011;14230;45.382;10.998;2023-02-15T01:49:16;133.25;;;63.58;;
26582;SDS011;14230;45.382;10.998;2023-02-15T01:51:47;129.90;;;66.53;;
26582;SDS011;14230;45.382;10.998;2023-02-15T01:54:23;139.25;;;67.68;;
26582;SDS011;14230;45.382;10.998;2023-02-15T01:56:58;154.35;;;73.32;;
26582;SDS011;14230;45.382;10.998;2023-02-15T01:59:30;146.73;;;76.10;;
26582;SDS011;14230;45.382;10.998;2023-02-15T02:01:59;142.02;;;74.15;;
26582;SDS011;14230;45.382;10.998;2023-02-15T02:05:11;150.75;;;73.88;;
26582;SDS011;14230;45.382;10.998;2023-02-15T02:07:23;142.77;;;73.15;;
26582;SDS011;14230;45.382;10.998;2023-02-15T02:09:53;155.00;;;74.95;;
26582;SDS011;14230;45.382;10.998;2023-02-15T02:12:23;143.77;;;74.20;;
26582;SDS011;14230;45.382;10.998;2023-02-15T02:14:51;145.18;;;70.82;;
26582;SDS011;14230;45.382;10.998;2023-02-15T02:30:47;107.80;;;52.10;;
26582;SDS011;14230;45.382;10.998;2023-02-15T02:44:18;115.40;;;55.72;;
26582;SDS011;14230;45.382;10.998;2023-02-15T02:47:01;119.95;;;58.35;;
26582;SDS011;14230;45.382;10.998;2023-02-15T02:49:40;139.60;;;67.07;;
26582;SDS011;14230;45.382;10.998;2023-02-15T02:58:05;143.73;;;72.03;;
26582;SDS011;14230;45.382;10.998;2023-02-15T03:03:38;137.00;;;67.07;;
26582;SDS011;14230;45.382;10.998;2023-02-15T03:07:00;126.13;;;63.85;;
26582;SDS011;14230;45.382;10.998;2023-02-15T03:09:38;123.55;;;63.03;;
26582;SDS011;14230;45.382;10.998;2023-02-15T03:12:12;135.23;;;64.18;;
26582;SDS011;14230;45.382;10.998;2023-02-15T03:15:01;123.75;;;60.97;;
26582;SDS011;14230;45.382;10.998;2023-02-15T03:17:32;112.68;;;56.47;;
26582;SDS011;14230;45.382;10.998;2023-02-15T03:20:11;126.82;;;59.70;;
26582;SDS011;14230;45.382;10.998;2023-02-15T03:22:45;117.50;;;55.70;;
26582;SDS011;14230;45.382;10.998;2023-02-15T03:25:21;109.88;;;54.95;;
26582;SDS011;14230;45.382;10.998;2023-02-15T03:28:00;104.13;;;51.40;;
26582;SDS011;14230;45.382;10.998;2023-02-15T03:30:34;110.10;;;51.47;;
26582;SDS011;14230;45.382;10.998;2023-02-15T03:33:03;111.10;;;52.65;;
26582;SDS011;14230;45.382;10.998;2023-02-15T03:35:35;90.35;;;48.17;;
26582;SDS011;14230;45.382;10.998;2023-02-15T03:38:10;115.85;;;49.67;;
26582;SDS011;14230;45.382;10.998;2023-02-15T03:40:44;97.97;;;48.67;;
26582;SDS011;14230;45.382;10.998;2023-02-15T03:43:34;97.90;;;49.95;;
26582;SDS011;14230;45.382;10.998;2023-02-15T03:49:30;96.05;;;46.72;;
26582;SDS011;14230;45.382;10.998;2023-02-15T03:52:04;83.95;;;42.97;;
26582;SDS011;14230;45.382;10.998;2023-02-15T03:54:33;88.10;;;43.20;;
26582;SDS011;14230;45.382;10.998;2023-02-15T04:00:12;99.95;;;47.55;;
26582;SDS011;14230;45.382;10.998;2023-02-15T04:05:37;96.20;;;48.58;;
26582;SDS011;14230;45.382;10.998;2023-02-15T04:08:06;106.18;;;50.78;;
26582;SDS011;14230;45.382;10.998;2023-02-15T04:10:33;103.00;;;49.85;;
26582;SDS011;14230;45.382;10.998;2023-02-15T04:13:19;97.10;;;48.88;;
26582;SDS011;14230;45.382;10.998;2023-02-15T04:15:49;100.47;;;48.70;;
26582;SDS011;14230;45.382;10.998;2023-02-15T04:18:36;106.78;;;51.20;;
26582;SDS011;14230;45.382;10.998;2023-02-15T04:21:25;101.63;;;48.33;;
26582;SDS011;14230;45.382;10.998;2023-02-15T04:24:12;86.30;;;42.80;;
26582;SDS011;14230;45.382;10.998;2023-02-15T04:26:59;77.25;;;40.03;;
26582;SDS011;14230;45.382;10.998;2023-02-15T04:29:27;91.78;;;42.28;;
26582;SDS011;14230;45.382;10.998;2023-02-15T04:31:56;80.00;;;40.22;;
26582;SDS011;14230;45.382;10.998;2023-02-15T04:34:27;80.80;;;40.92;;
26582;SDS011;14230;45.382;10.998;2023-02-15T04:36:54;87.50;;;39.58;;
26582;SDS011;14230;45.382;10.998;2023-02-15T04:39:22;84.85;;;38.40;;
26582;SDS011;14230;45.382;10.998;2023-02-15T04:41:49;80.57;;;40.25;;
26582;SDS011;14230;45.382;10.998;2023-02-15T04:44:16;87.82;;;40.30;;
26582;SDS011;14230;45.382;10.998;2023-02-15T04:46:44;78.03;;;37.55;;
26582;SDS011;14230;45.382;10.998;2023-02-15T04:49:11;89.90;;;42.35;;
26582;SDS011;14230;45.382;10.998;2023-02-15T04:51:39;96.03;;;43.88;;
26582;SDS011;14230;45.382;10.998;2023-02-15T04:54:06;80.75;;;41.30;;
26582;SDS011;14230;45.382;10.998;2023-02-15T04:56:33;90.63;;;46.03;;
26582;SDS011;14230;45.382;10.998;2023-02-15T04:59:04;92.97;;;46.88;;
26582;SDS011;14230;45.382;10.998;2023-02-15T05:01:32;89.93;;;43.70;;
26582;SDS011;14230;45.382;10.998;2023-02-15T05:03:59;90.15;;;42.45;;
26582;SDS011;14230;45.382;10.998;2023-02-15T05:06:27;93.18;;;44.33;;
26582;SDS011;14230;45.382;10.998;2023-02-15T05:08:54;81.63;;;40.08;;
26582;SDS011;14230;45.382;10.998;2023-02-15T05:11:22;83.10;;;40.17;;
26582;SDS011;14230;45.382;10.998;2023-02-15T05:13:49;85.43;;;37.55;;
26582;SDS011;14230;45.382;10.998;2023-02-15T05:16:16;75.63;;;36.67;;
26582;SDS011;14230;45.382;10.998;2023-02-15T05:18:44;82.47;;;37.85;;
26582;SDS011;14230;45.382;10.998;2023-02-15T05:21:11;80.85;;;37.42;;
26582;SDS011;14230;45.382;10.998;2023-02-15T05:23:40;78.38;;;35.85;;
26582;SDS011;14230;45.382;10.998;2023-02-15T05:26:10;83.32;;;37.00;;
26582;SDS011;14230;45.382;10.998;2023-02-15T05:29:05;76.35;;;35.78;;
26582;SDS011;14230;45.382;10.998;2023-02-15T05:31:33;79.95;;;36.78;;
26582;SDS011;14230;45.382;10.998;2023-02-15T05:34:02;75.95;;;36.58;;
26582;SDS011;14230;45.382;10.998;2023-02-15T05:36:29;85.60;;;37.13;;
26582;SDS011;14230;45.382;10.998;2023-02-15T05:38:57;80.60;;;38.35;;
26582;SDS011;14230;45.382;10.998;2023-02-15T05:41:24;74.15;;;37.03;;
26582;SDS011;14230;45.382;10.998;2023-02-15T05:43:54;75.40;;;38.28;;
26582;SDS011;14230;45.382;10.998;2023-02-15T05:46:22;84.65;;;36.97;;
26582;SDS011;14230;45.382;10.998;2023-02-15T05:48:50;77.95;;;38.25;;
26582;SDS011;14230;45.382;10.998;2023-02-15T05:51:17;78.32;;;37.63;;
26582;SDS011;14230;45.382;10.998;2023-02-15T05:53:45;84.03;;;40.70;;
26582;SDS011;14230;45.382;10.998;2023-02-15T05:56:12;84.07;;;36.78;;
26582;SDS011;14230;45.382;10.998;2023-02-15T05:58:40;79.15;;;38.83;;
26582;SDS011;14230;45.382;10.998;2023-02-15T06:01:13;78.55;;;39.75;;
26582;SDS011;14230;45.382;10.998;2023-02-15T06:03:44;79.60;;;39.30;;
26582;SDS011;14230;45.382;10.998;2023-02-15T06:06:12;72.40;;;36.92;;
26582;SDS011;14230;45.382;10.998;2023-02-15T06:08:40;86.00;;;40.72;;
26582;SDS011;14230;45.382;10.998;2023-02-15T06:11:07;80.82;;;37.25;;
26582;SDS011;14230;45.382;10.998;2023-02-15T06:13:35;85.90;;;38.10;;
26582;SDS011;14230;45.382;10.998;2023-02-15T06:16:05;84.90;;;38.60;;
26582;SDS011;14230;45.382;10.998;2023-02-15T06:18:33;83.88;;;38.95;;
26582;SDS011;14230;45.382;10.998;2023-02-15T06:21:01;79.15;;;39.28;;
26582;SDS011;14230;45.382;10.998;2023-02-15T06:23:29;76.88;;;38.60;;
26582;SDS011;14230;45.382;10.998;2023-02-15T06:25:56;86.30;;;40.05;;
26582;SDS011;14230;45.382;10.998;2023-02-15T06:28:24;96.30;;;41.75;;
26582;SDS011;14230;45.382;10.998;2023-02-15T06:30:52;89.30;;;38.22;;
26582;SDS011;14230;45.382;10.998;2023-02-15T06:33:19;85.50;;;38.50;;
26582;SDS011;14230;45.382;10.998;2023-02-15T06:35:47;88.10;;;40.63;;
26582;SDS011;14230;45.382;10.998;2023-02-15T06:38:14;82.20;;;39.40;;
26582;SDS011;14230;45.382;10.998;2023-02-15T06:40:42;81.03;;;36.85;;
26582;SDS011;14230;45.382;10.998;2023-02-15T06:43:09;80.93;;;38.92;;
26582;SDS011;14230;45.382;10.998;2023-02-15T06:45:37;90.10;;;40.35;;
26582;SDS011;14230;45.382;10.998;2023-02-15T06:48:04;80.05;;;39.45;;
26582;SDS011;14230;45.382;10.998;2023-02-15T06:50:34;82.70;;;39.25;;
26582;SDS011;14230;45.382;10.998;2023-02-15T06:53:01;94.78;;;37.88;;
26582;SDS011;14230;45.382;10.998;2023-02-15T06:55:29;119.57;;;43.45;;
26582;SDS011;14230;45.382;10.998;2023-02-15T06:57:57;112.70;;;42.88;;
26582;SDS011;14230;45.382;10.998;2023-02-15T07:00:24;120.32;;;42.38;;
26582;SDS011;14230;45.382;10.998;2023-02-15T07:02:55;117.43;;;41.03;;
26582;SDS011;14230;45.382;10.998;2023-02-15T07:05:25;110.20;;;41.70;;
26582;SDS011;14230;45.382;10.998;2023-02-15T07:07:58;113.00;;;41.33;;
26582;SDS011;14230;45.382;10.998;2023-02-15T07:10:26;98.07;;;39.95;;
26582;SDS011;14230;45.382;10.998;2023-02-15T07:12:54;94.53;;;40.10;;
26582;SDS011;14230;45.382;10.998;2023-02-15T07:15:21;109.55;;;38.55;;
26582;SDS011;14230;45.382;10.998;2023-02-15T07:17:49;88.07;;;38.85;;
26582;SDS011;14230;45.382;10.998;2023-02-15T07:20:20;86.72;;;38.35;;
26582;SDS011;14230;45.382;10.998;2023-02-15T07:22:49;83.05;;;37.75;;
26582;SDS011;14230;45.382;10.998;2023-02-15T07:25:17;80.45;;;37.30;;
26582;SDS011;14230;45.382;10.998;2023-02-15T07:27:45;76.65;;;36.40;;
26582;SDS011;14230;45.382;10.998;2023-02-15T07:30:13;67.35;;;34.20;;
26582;SDS011;14230;45.382;10.998;2023-02-15T07:32:43;77.57;;;32.60;;
26582;SDS011;14230;45.382;10.998;2023-02-15T07:35:31;75.30;;;34.67;;
26582;SDS011;14230;45.382;10.998;2023-02-15T07:38:00;71.53;;;35.55;;
26582;SDS011;14230;45.382;10.998;2023-02-15T07:40:27;74.88;;;35.70;;
26582;SDS011;14230;45.382;10.998;2023-02-15T07:42:57;70.60;;;36.92;;
26582;SDS011;14230;45.382;10.998;2023-02-15T07:45:25;77.20;;;36.10;;
26582;SDS011;14230;45.382;10.998;2023-02-15T07:47:53;87.28;;;40.25;;
26582;SDS011;14230;45.382;10.998;2023-02-15T07:50:21;76.38;;;40.42;;
26582;SDS011;14230;45.382;10.998;2023-02-15T07:52:49;75.10;;;40.38;;
26582;SDS011;14230;45.382;10.998;2023-02-15T07:55:16;78.40;;;42.38;;
26582;SDS011;14230;45.382;10.998;2023-02-15T07:57:45;75.43;;;41.40;;
26582;SDS011;14230;45.382;10.998;2023-02-15T08:00:15;75.25;;;40.58;;
26582;SDS011;14230;45.382;10.998;2023-02-15T08:02:47;62.78;;;39.63;;
26582;SDS011;14230;45.382;10.998;2023-02-15T08:05:36;65.43;;;36.53;;
26582;SDS011;14230;45.382;10.998;2023-02-15T08:08:03;63.38;;;38.08;;
26582;SDS011;14230;45.382;10.998;2023-02-15T08:10:31;70.10;;;38.20;;
26582;SDS011;14230;45.382;10.998;2023-02-15T08:13:17;72.82;;;39.60;;
26582;SDS011;14230;45.382;10.998;2023-02-15T08:15:48;68.40;;;38.90;;
26582;SDS011;14230;45.382;10.998;2023-02-15T08:18:17;84.90;;;40.35;;
26582;SDS011;14230;45.382;10.998;2023-02-15T08:20:50;68.10;;;39.13;;
26582;SDS011;14230;45.382;10.998;2023-02-15T08:23:18;76.57;;;41.75;;
26582;SDS011;14230;45.382;10.998;2023-02-15T08:25:46;66.03;;;37.70;;
26582;SDS011;14230;45.382;10.998;2023-02-15T08:28:13;66.03;;;36.58;;
26582;SDS011;14230;45.382;10.998;2023-02-15T08:30:41;68.45;;;37.22;;
26582;SDS011;14230;45.382;10.998;2023-02-15T08:33:08;68.25;;;36.72;;
26582;SDS011;14230;45.382;10.998;2023-02-15T08:35:36;62.28;;;33.75;;
26582;SDS011;14230;45.382;10.998;2023-02-15T08:38:04;61.95;;;34.83;;
26582;SDS011;14230;45.382;10.998;2023-02-15T08:40:32;52.85;;;30.77;;
26582;SDS011;14230;45.382;10.998;2023-02-15T08:42:59;60.38;;;30.73;;
26582;SDS011;14230;45.382;10.998;2023-02-15T08:45:26;54.13;;;29.58;;
26582;SDS011;14230;45.382;10.998;2023-02-15T08:47:54;53.33;;;29.13;;
26582;SDS011;14230;45.382;10.998;2023-02-15T08:50:21;50.90;;;29.83;;
26582;SDS011;14230;45.382;10.998;2023-02-15T08:52:49;56.60;;;29.67;;
26582;SDS011;14230;45.382;10.998;2023-02-15T08:55:16;61.53;;;30.90;;
26582;SDS011;14230;45.382;10.998;2023-02-15T08:57:44;66.40;;;32.10;;
26582;SDS011;14230;45.382;10.998;2023-02-15T09:00:12;54.25;;;31.67;;
26582;SDS011;14230;45.382;10.998;2023-02-15T09:02:40;56.75;;;30.90;;
26582;SDS011;14230;45.382;10.998;2023-02-15T09:05:07;48.92;;;32.08;;
26582;SDS011;14230;45.382;10.998;2023-02-15T09:07:36;57.25;;;32.70;;
26582;SDS011;14230;45.382;10.998;2023-02-15T09:10:03;57.17;;;31.95;;
26582;SDS011;14230;45.382;10.998;2023-02-15T09:12:31;57.55;;;31.67;;
26582;SDS011;14230;45.382;10.998;2023-02-15T09:14:58;59.53;;;32.30;;
26582;SDS011;14230;45.382;10.998;2023-02-15T09:17:26;51.88;;;32.28;;
26582;SDS011;14230;45.382;10.998;2023-02-15T09:19:53;66.43;;;32.10;;
26582;SDS011;14230;45.382;10.998;2023-02-15T09:22:20;54.92;;;30.77;;
26582;SDS011;14230;45.382;10.998;2023-02-15T09:24:49;55.22;;;32.40;;
26582;SDS011;14230;45.382;10.998;2023-02-15T09:27:16;51.15;;;30.83;;
26582;SDS011;14230;45.382;10.998;2023-02-15T09:29:43;46.72;;;30.30;;
26582;SDS011;14230;45.382;10.998;2023-02-15T09:32:13;49.63;;;31.73;;
26582;SDS011;14230;45.382;10.998;2023-02-15T09:34:41;51.92;;;30.90;;
26582;SDS011;14230;45.382;10.998;2023-02-15T09:37:08;59.15;;;32.92;;
26582;SDS011;14230;45.382;10.998;2023-02-15T09:39:37;59.40;;;34.13;;
26582;SDS011;14230;45.382;10.998;2023-02-15T09:45:01;58.88;;;31.75;;
26582;SDS011;14230;45.382;10.998;2023-02-15T09:50:50;45.47;;;29.17;;
26582;SDS011;14230;45.382;10.998;2023-02-15T09:53:33;50.53;;;29.13;;
26582;SDS011;14230;45.382;10.998;2023-02-15T09:56:32;43.70;;;27.90;;
26582;SDS011;14230;45.382;10.998;2023-02-15T09:59:19;48.85;;;28.20;;
26582;SDS011;14230;45.382;10.998;2023-02-15T10:02:17;42.13;;;25.85;;
26582;SDS011;14230;45.382;10.998;2023-02-15T10:11:05;44.40;;;26.00;;
26582;SDS011;14230;45.382;10.998;2023-02-15T10:14:50;47.55;;;26.83;;
26582;SDS011;14230;45.382;10.998;2023-02-15T10:23:04;40.67;;;24.08;;
26582;SDS011;14230;45.382;10.998;2023-02-15T10:31:24;47.53;;;28.98;;
26582;SDS011;14230;45.382;10.998;2023-02-15T10:34:17;48.35;;;28.50;;
26582;SDS011;14230;45.382;10.998;2023-02-15T10:45:18;47.78;;;28.75;;
26582;SDS011;14230;45.382;10.998;2023-02-15T10:50:55;53.92;;;29.40;;
26582;SDS011;14230;45.382;10.998;2023-02-15T11:06:52;56.75;;;30.70;;
26582;SDS011;14230;45.382;10.998;2023-02-15T11:09:22;60.42;;;32.72;;
26582;SDS011;14230;45.382;10.998;2023-02-15T11:11:56;58.97;;;31.35;;
26582;SDS011;14230;45.382;10.998;2023-02-15T11:17:42;63.80;;;32.28;;
26582;SDS011;14230;45.382;10.998;2023-02-15T11:20:19;77.13;;;41.70;;
26582;SDS011;14230;45.382;10.998;2023-02-15T11:22:55;58.10;;;31.17;;
26582;SDS011;14230;45.382;10.998;2023-02-15T11:25:25;61.20;;;34.63;;
26582;SDS011;14230;45.382;10.998;2023-02-15T11:28:03;68.20;;;33.60;;
26582;SDS011;14230;45.382;10.998;2023-02-15T11:30:44;63.85;;;33.95;;
26582;SDS011;14230;45.382;10.998;2023-02-15T11:33:23;63.95;;;34.63;;
26582;SDS011;14230;45.382;10.998;2023-02-15T11:36:03;65.40;;;34.97;;
26582;SDS011;14230;45.382;10.998;2023-02-15T11:38:40;68.65;;;35.15;;
26582;SDS011;14230;45.382;10.998;2023-02-15T11:41:11;74.10;;;36.60;;
26582;SDS011;14230;45.382;10.998;2023-02-15T11:44:00;65.78;;;36.67;;
26582;SDS011;14230;45.382;10.998;2023-02-15T11:47:11;69.40;;;36.35;;
26582;SDS011;14230;45.382;10.998;2023-02-15T11:49:39;68.35;;;36.28;;
26582;SDS011;14230;45.382;10.998;2023-02-15T11:52:08;81.47;;;41.80;;
26582;SDS011;14230;45.382;10.998;2023-02-15T11:54:43;74.78;;;39.45;;
26582;SDS011;14230;45.382;10.998;2023-02-15T12:00:00;71.90;;;36.53;;
26582;SDS011;14230;45.382;10.998;2023-02-15T12:02:50;73.03;;;34.85;;
26582;SDS011;14230;45.382;10.998;2023-02-15T12:05:21;70.53;;;40.28;;
26582;SDS011;14230;45.382;10.998;2023-02-15T12:07:55;78.77;;;40.23;;
26582;SDS011;14230;45.382;10.998;2023-02-15T12:10:32;78.05;;;40.95;;
26582;SDS011;14230;45.382;10.998;2023-02-15T12:13:08;70.30;;;37.03;;
26582;SDS011;14230;45.382;10.998;2023-02-15T12:15:41;72.35;;;35.42;;
26582;SDS011;14230;45.382;10.998;2023-02-15T12:18:21;70.88;;;36.38;;
26582;SDS011;14230;45.382;10.998;2023-02-15T12:21:03;77.97;;;41.15;;
26582;SDS011;14230;45.382;10.998;2023-02-15T12:23:48;73.43;;;39.45;;
26582;SDS011;14230;45.382;10.998;2023-02-15T12:26:28;82.47;;;40.85;;
26582;SDS011;14230;45.382;10.998;2023-02-15T12:29:05;73.78;;;39.35;;
26582;SDS011;14230;45.382;10.998;2023-02-15T12:31:43;69.43;;;36.55;;
26582;SDS011;14230;45.382;10.998;2023-02-15T12:34:36;72.67;;;37.77;;
26582;SDS011;14230;45.382;10.998;2023-02-15T12:37:11;69.93;;;38.28;;
26582;SDS011;14230;45.382;10.998;2023-02-15T12:39:57;69.22;;;36.78;;
26582;SDS011;14230;45.382;10.998;2023-02-15T12:42:46;68.05;;;35.13;;
26582;SDS011;14230;45.382;10.998;2023-02-15T12:45:24;69.75;;;36.78;;
26582;SDS011;14230;45.382;10.998;2023-02-15T12:50:42;73.10;;;38.15;;
26582;SDS011;14230;45.382;10.998;2023-02-15T12:53:21;69.72;;;38.10;;
26582;SDS011;14230;45.382;10.998;2023-02-15T12:56:01;80.55;;;38.47;;
26582;SDS011;14230;45.382;10.998;2023-02-15T13:03:31;72.05;;;40.70;;
26582;SDS011;14230;45.382;10.998;2023-02-15T13:05:58;75.22;;;39.80;;
26582;SDS011;14230;45.382;10.998;2023-02-15T13:08:28;69.43;;;35.55;;
26582;SDS011;14230;45.382;10.998;2023-02-15T13:11:04;78.28;;;36.03;;
26582;SDS011;14230;45.382;10.998;2023-02-15T13:13:47;68.70;;;33.92;;
26582;SDS011;14230;45.382;10.998;2023-02-15T13:16:26;75.05;;;37.92;;
26582;SDS011;14230;45.382;10.998;2023-02-15T13:19:15;67.32;;;36.58;;
26582;SDS011;14230;45.382;10.998;2023-02-15T13:21:45;76.82;;;37.22;;
26582;SDS011;14230;45.382;10.998;2023-02-15T13:24:18;65.78;;;34.70;;
26582;SDS011;14230;45.382;10.998;2023-02-15T13:26:54;69.68;;;34.97;;
26582;SDS011;14230;45.382;10.998;2023-02-15T13:29:42;62.25;;;35.35;;
26582;SDS011;14230;45.382;10.998;2023-02-15T13:32:26;67.47;;;34.55;;
26582;SDS011;14230;45.382;10.998;2023-02-15T13:35:03;68.95;;;35.85;;
26582;SDS011;14230;45.382;10.998;2023-02-15T13:40:18;64.15;;;33.90;;
26582;SDS011;14230;45.382;10.998;2023-02-15T13:57:06;63.05;;;34.88;;
26582;SDS011;14230;45.382;10.998;2023-02-15T13:59:58;62.65;;;31.88;;
26582;SDS011;14230;45.382;10.998;2023-02-15T14:08:21;69.63;;;33.17;;
26582;SDS011;14230;45.382;10.998;2023-02-15T14:14:00;61.47;;;30.33;;
26582;SDS011;14230;45.382;10.998;2023-02-15T14:16:36;55.55;;;28.23;;
26582;SDS011;14230;45.382;10.998;2023-02-15T14:19:39;55.75;;;27.73;;
26582;SDS011;14230;45.382;10.998;2023-02-15T14:25:14;53.17;;;27.92;;
26582;SDS011;14230;45.382;10.998;2023-02-15T14:28:08;49.72;;;27.35;;
26582;SDS011;14230;45.382;10.998;2023-02-15T14:30:44;54.30;;;27.48;;
26582;SDS011;14230;45.382;10.998;2023-02-15T14:36:04;52.00;;;28.48;;
26582;SDS011;14230;45.382;10.998;2023-02-15T14:38:39;51.88;;;29.00;;
26582;SDS011;14230;45.382;10.998;2023-02-15T14:46:52;56.38;;;27.73;;
26582;SDS011;14230;45.382;10.998;2023-02-15T14:49:42;52.72;;;28.88;;
26582;SDS011;14230;45.382;10.998;2023-02-15T14:52:09;57.47;;;27.63;;
26582;SDS011;14230;45.382;10.998;2023-02-15T15:02:20;58.40;;;28.55;;
26582;SDS011;14230;45.382;10.998;2023-02-15T15:12:44;67.35;;;30.30;;
26582;SDS011;14230;45.382;10.998;2023-02-15T15:20:41;59.67;;;29.75;;
26582;SDS011;14230;45.382;10.998;2023-02-15T15:25:43;75.50;;;32.85;;
26582;SDS011;14230;45.382;10.998;2023-02-15T15:45:50;63.30;;;28.05;;
26582;SDS011;14230;45.382;10.998;2023-02-15T15:48:40;74.65;;;35.92;;
26582;SDS011;14230;45.382;10.998;2023-02-15T15:51:13;80.05;;;34.95;;
26582;SDS011;14230;45.382;10.998;2023-02-15T15:53:47;81.18;;;36.17;;
26582;SDS011;14230;45.382;10.998;2023-02-15T15:56:27;84.88;;;39.38;;
26582;SDS011;14230;45.382;10.998;2023-02-15T15:59:02;86.15;;;42.20;;
26582;SDS011;14230;45.382;10.998;2023-02-15T16:01:39;102.38;;;47.97;;
26582;SDS011;14230;45.382;10.998;2023-02-15T16:04:12;79.47;;;38.03;;
26582;SDS011;14230;45.382;10.998;2023-02-15T16:06:52;80.93;;;37.03;;
26582;SDS011;14230;45.382;10.998;2023-02-15T16:09:21;85.72;;;39.65;;
26582;SDS011;14230;45.382;10.998;2023-02-15T16:11:51;104.90;;;47.58;;
26582;SDS011;14230;45.382;10.998;2023-02-15T16:16:48;90.63;;;43.15;;
26582;SDS011;14230;45.382;10.998;2023-02-15T16:19:19;93.88;;;43.45;;
26582;SDS011;14230;45.382;10.998;2023-02-15T16:21:49;107.57;;;46.08;;
26582;SDS011;14230;45.382;10.998;2023-02-15T16:24:21;92.72;;;41.92;;
26582;SDS011;14230;45.382;10.998;2023-02-15T16:29:54;97.03;;;41.58;;
26582;SDS011;14230;45.382;10.998;2023-02-15T16:32:23;96.80;;;41.13;;
26582;SDS011;14230;45.382;10.998;2023-02-15T16:34:57;95.88;;;40.83;;
26582;SDS011;14230;45.382;10.998;2023-02-15T16:37:27;91.60;;;39.33;;
26582;SDS011;14230;45.382;10.998;2023-02-15T16:42:26;94.97;;;38.50;;
26582;SDS011;14230;45.382;10.998;2023-02-15T16:44:55;97.90;;;40.05;;
26582;SDS011;14230;45.382;10.998;2023-02-15T16:47:33;113.45;;;43.67;;
26582;SDS011;14230;45.382;10.998;2023-02-15T16:50:04;100.22;;;44.75;;
26582;SDS011;14230;45.382;10.998;2023-02-15T16:52:32;92.07;;;40.22;;
26582;SDS011;14230;45.382;10.998;2023-02-15T16:55:02;89.97;;;40.00;;
26582;SDS011;14230;45.382;10.998;2023-02-15T16:57:33;90.78;;;41.50;;
26582;SDS011;14230;45.382;10.998;2023-02-15T17:00:04;91.63;;;41.67;;
26582;SDS011;14230;45.382;10.998;2023-02-15T17:02:34;89.20;;;42.47;;
26582;SDS011;14230;45.382;10.998;2023-02-15T17:05:22;101.95;;;42.08;;
26582;SDS011;14230;45.382;10.998;2023-02-15T17:10:30;99.10;;;42.35;;
26582;SDS011;14230;45.382;10.998;2023-02-15T17:13:05;99.63;;;43.72;;
26582;SDS011;14230;45.382;10.998;2023-02-15T17:15:39;106.03;;;46.35;;
26582;SDS011;14230;45.382;10.998;2023-02-15T17:20:46;98.78;;;43.00;;
26582;SDS011;14230;45.382;10.998;2023-02-15T17:23:26;91.78;;;43.10;;
26582;SDS011;14230;45.382;10.998;2023-02-15T17:25:58;108.40;;;51.88;;
26582;SDS011;14230;45.382;10.998;2023-02-15T17:28:30;123.97;;;58.00;;
26582;SDS011;14230;45.382;10.998;2023-02-15T17:30:58;133.73;;;61.92;;
26582;SDS011;14230;45.382;10.998;2023-02-15T17:41:26;95.00;;;45.38;;
26582;SDS011;14230;45.382;10.998;2023-02-15T17:43:55;102.82;;;45.35;;
26582;SDS011;14230;45.382;10.998;2023-02-15T17:46:24;96.57;;;44.10;;
26582;SDS011;14230;45.382;10.998;2023-02-15T17:48:53;97.35;;;43.25;;
26582;SDS011;14230;45.382;10.998;2023-02-15T17:51:22;98.45;;;45.08;;
26582;SDS011;14230;45.382;10.998;2023-02-15T17:53:50;102.07;;;45.35;;
26582;SDS011;14230;45.382;10.998;2023-02-15T17:56:36;102.70;;;46.42;;
26582;SDS011;14230;45.382;10.998;2023-02-15T17:59:06;92.13;;;42.50;;
26582;SDS011;14230;45.382;10.998;2023-02-15T18:01:36;97.00;;;42.25;;